createdAt,value
2022-12-31T00:00:22.326Z,68.83301
2022-12-31T00:02:22.559Z,69.39063
2022-12-31T00:04:22.227Z,69.0166
2022-12-31T00:06:22.100Z,68.9834
2022-12-31T00:08:22.076Z,68.45801
2022-12-31T00:10:22.117Z,68.76758
2022-12-31T00:12:22.135Z,68.58301
2022-12-31T00:15:36.484Z,68.53906
2022-12-31T00:17:36.562Z,68.31836
2022-12-31T00:19:36.487Z,68.27539
2022-12-31T00:21:36.733Z,68.69824
2022-12-31T00:23:36.626Z,68.71484
2022-12-31T00:25:36.600Z,68.39258
2022-12-31T00:27:36.763Z,68.54492
2022-12-31T00:30:41.487Z,68.91602
2022-12-31T00:32:41.396Z,70.86816
2022-12-31T00:34:41.179Z,72.07129
2022-12-31T00:36:41.344Z,71.99316
2022-12-31T00:38:41.250Z,71.33984
2022-12-31T00:40:41.406Z,70.90625
2022-12-31T00:42:41.325Z,70.45508
2022-12-31T00:46:04.408Z,69.36719
2022-12-31T00:48:04.375Z,69.23047
2022-12-31T00:50:04.417Z,69.02051
2022-12-31T00:52:04.541Z,68.36719
2022-12-31T00:54:04.257Z,68.50977
2022-12-31T00:56:04.525Z,68.19238
2022-12-31T00:58:04.348Z,68.85254
2022-12-31T01:01:02.035Z,68.63672
2022-12-31T01:03:02.158Z,68.78125
2022-12-31T01:05:01.779Z,68.49805
2022-12-31T01:07:01.848Z,69.04492
2022-12-31T01:09:01.967Z,68.68359
2022-12-31T01:11:01.938Z,69.20898
2022-12-31T01:13:01.825Z,69.3418
2022-12-31T01:15:01.919Z,69.02441
2022-12-31T01:16:42.888Z,68.93262
2022-12-31T01:18:42.748Z,69.5498
2022-12-31T01:20:42.786Z,69.26367
2022-12-31T01:22:42.769Z,69.79395
2022-12-31T01:24:42.915Z,69.4502
2022-12-31T01:26:42.759Z,69.1709
2022-12-31T01:28:42.789Z,69.41309
2022-12-31T01:31:57.682Z,69.48047
2022-12-31T01:33:57.659Z,69.31152
2022-12-31T01:35:57.674Z,70.14648
2022-12-31T01:37:57.830Z,69.76172
2022-12-31T01:39:57.826Z,70.00586
2022-12-31T01:41:57.845Z,69.52832
2022-12-31T01:43:57.823Z,70.10156
2022-12-31T01:46:53.019Z,69.79297
2022-12-31T01:48:52.958Z,69.68945
2022-12-31T01:50:52.992Z,69.65137
2022-12-31T01:52:52.963Z,69.70996
2022-12-31T01:54:52.971Z,69.64941
2022-12-31T01:56:53.049Z,69.70605
2022-12-31T01:58:52.946Z,69.69336
2022-12-31T02:02:00.919Z,69.39063
2022-12-31T02:04:00.719Z,69.87695
2022-12-31T02:06:00.783Z,69.79883
2022-12-31T02:08:00.796Z,70
2022-12-31T02:10:00.737Z,70.19531
2022-12-31T02:12:00.891Z,69.63574
2022-12-31T02:14:00.801Z,69.99707
2022-12-31T02:17:35.922Z,70.33984
2022-12-31T02:19:35.893Z,70.26758
2022-12-31T02:21:35.981Z,70.04004
2022-12-31T02:23:35.810Z,70.42773
2022-12-31T02:25:35.774Z,70.50488
2022-12-31T02:27:35.900Z,70.37793
2022-12-31T02:29:35.889Z,70.65527
2022-12-31T02:32:22.977Z,70.50098
2022-12-31T02:34:23.100Z,70.2666
2022-12-31T02:36:22.986Z,70.40527
2022-12-31T02:38:22.979Z,70.18359
2022-12-31T02:40:23.010Z,70.08984
2022-12-31T02:42:23.100Z,70.19824
2022-12-31T02:44:22.933Z,70.21875
2022-12-31T02:47:58.047Z,70.24121
2022-12-31T02:49:58.054Z,70.45801
2022-12-31T02:51:58.030Z,70.3457
2022-12-31T02:53:58.060Z,70.33398
2022-12-31T02:55:58.079Z,70.28223
2022-12-31T02:57:58.105Z,70.63867
2022-12-31T02:59:58.061Z,70.91797
2022-12-31T03:02:27.950Z,70.66602
2022-12-31T03:04:27.683Z,70.52148
2022-12-31T03:06:27.673Z,70.19629
2022-12-31T03:08:27.665Z,71.08887
2022-12-31T03:10:27.694Z,70.99023
2022-12-31T03:12:27.743Z,71.45508
2022-12-31T03:14:27.663Z,71.55859
2022-12-31T03:17:49.462Z,71.77832
2022-12-31T03:19:49.506Z,72.04395
2022-12-31T03:21:49.420Z,71.89258
2022-12-31T03:23:49.414Z,72.15234
2022-12-31T03:25:49.481Z,71.87891
2022-12-31T03:27:49.458Z,71.92871
2022-12-31T03:29:49.425Z,71.78223
2022-12-31T03:32:54.010Z,72.9541
2022-12-31T03:34:54.058Z,72.97949
2022-12-31T03:36:53.995Z,72.26758
2022-12-31T03:38:54.002Z,71.63867
2022-12-31T03:40:54.031Z,71.44434
2022-12-31T03:42:54.093Z,71.49414
2022-12-31T03:44:54.036Z,71.43555
2022-12-31T03:48:29.861Z,72.69922
2022-12-31T03:50:29.820Z,72.3252
2022-12-31T03:52:29.806Z,72.07617
2022-12-31T03:54:29.845Z,72.37012
2022-12-31T03:56:29.856Z,72.36035
2022-12-31T03:58:29.881Z,72.5459
2022-12-31T04:00:29.940Z,72.28711
2022-12-31T04:03:29.814Z,71.85156
2022-12-31T04:05:29.782Z,71.58887
2022-12-31T04:07:29.768Z,72.76563
2022-12-31T04:09:29.859Z,73.57031
2022-12-31T04:11:29.834Z,73.47754
2022-12-31T04:13:29.713Z,72.72266
2022-12-31T04:15:29.829Z,72.60938
2022-12-31T04:18:16.529Z,71.64063
2022-12-31T04:20:16.834Z,71.86719
2022-12-31T04:22:16.508Z,71.62402
2022-12-31T04:24:16.447Z,72.1123
2022-12-31T04:26:16.430Z,71.93555
2022-12-31T04:28:16.453Z,71.98535
2022-12-31T04:30:16.412Z,71.71094
2022-12-31T04:33:56.702Z,72.42285
2022-12-31T04:35:56.656Z,73.0166
2022-12-31T04:37:56.813Z,73.55762
2022-12-31T04:40:06.095Z,74.90039
2022-12-31T04:41:56.660Z,74.64941
2022-12-31T04:43:56.704Z,73.37012
2022-12-31T04:45:56.779Z,72.94434
2022-12-31T04:48:38.027Z,71.77441
2022-12-31T04:50:38.047Z,71.58203
2022-12-31T04:52:42.991Z,71.52051
2022-12-31T04:54:38.064Z,72.10352
2022-12-31T04:56:38.024Z,71.65625
2022-12-31T04:58:38.004Z,72.16797
2022-12-31T05:00:38.005Z,72.22852
2022-12-31T05:04:20.005Z,72.21484
2022-12-31T05:06:20.019Z,72.22168
2022-12-31T05:08:20.037Z,72.0332
2022-12-31T05:10:20.025Z,72.89648
2022-12-31T05:12:19.984Z,73.0166
2022-12-31T05:14:19.945Z,72.25391
2022-12-31T05:16:20.165Z,72.08105
2022-12-31T05:19:33.965Z,71.9209
2022-12-31T05:21:33.984Z,71.52051
2022-12-31T05:23:33.956Z,72.01758
2022-12-31T05:25:34.027Z,71.7334
2022-12-31T05:27:33.999Z,71.33984
2022-12-31T05:29:33.986Z,71.72461
2022-12-31T05:31:33.962Z,71.66895
2022-12-31T05:34:56.672Z,71.65918
2022-12-31T05:36:56.648Z,71.07031
2022-12-31T05:38:56.659Z,71.46973
2022-12-31T05:40:56.725Z,71.38965
2022-12-31T05:42:56.678Z,71.05664
2022-12-31T05:44:56.669Z,71.40723
2022-12-31T05:46:56.626Z,71.42188
2022-12-31T05:50:05.566Z,73.32715
2022-12-31T05:52:05.596Z,72.89063
2022-12-31T05:54:05.846Z,73.19141
2022-12-31T05:56:05.744Z,73.37402
2022-12-31T05:58:05.734Z,72.78809
2022-12-31T06:00:05.734Z,72.33105
2022-12-31T06:02:05.768Z,71.68457
2022-12-31T06:05:26.679Z,71.13477
2022-12-31T06:07:20.606Z,71.02734
2022-12-31T06:09:20.578Z,70.86133
2022-12-31T06:11:20.470Z,70.58496
2022-12-31T06:13:20.395Z,70.99121
2022-12-31T06:15:20.411Z,70.9248
2022-12-31T06:17:20.392Z,71.03906
2022-12-31T06:19:42.167Z,71.19141
2022-12-31T06:21:42.145Z,71.4375
2022-12-31T06:23:42.203Z,72.17188
2022-12-31T06:25:42.158Z,73.98633
2022-12-31T06:27:42.445Z,75.38379
2022-12-31T06:29:42.892Z,75.54102
2022-12-31T06:31:42.220Z,75.24219
2022-12-31T06:34:54.537Z,73.92969
2022-12-31T06:36:54.554Z,72.63672
2022-12-31T06:38:54.672Z,72.65527
2022-12-31T06:40:54.552Z,72.21777
2022-12-31T06:43:00.555Z,73.31543
2022-12-31T06:44:54.579Z,72.45605
2022-12-31T06:46:54.564Z,71.6875
2022-12-31T06:50:02.428Z,72.1123
2022-12-31T06:52:02.259Z,72.89648
2022-12-31T06:54:02.292Z,72.52344
2022-12-31T06:56:02.275Z,71.95508
2022-12-31T06:58:02.298Z,72.05273
2022-12-31T07:00:02.334Z,71.62793
2022-12-31T07:02:02.546Z,71.59961
2022-12-31T07:05:18.477Z,71.66211
2022-12-31T07:07:18.319Z,72.03223
2022-12-31T07:09:18.348Z,71.32129
2022-12-31T07:11:18.305Z,71.49023
2022-12-31T07:13:18.373Z,71.8418
2022-12-31T07:15:18.328Z,72.0752
2022-12-31T07:17:18.272Z,72.36426
2022-12-31T07:20:17.226Z,72.75586
2022-12-31T07:22:17.245Z,72.62988
2022-12-31T07:24:17.155Z,72.95215
2022-12-31T07:26:17.105Z,72.05859
2022-12-31T07:28:17.126Z,72.3916
2022-12-31T07:30:17.142Z,73.16992
2022-12-31T07:32:17.109Z,73.03125
2022-12-31T07:34:17.101Z,73.44922
2022-12-31T07:36:08.160Z,73.64258
2022-12-31T07:38:08.260Z,73.80664
2022-12-31T07:40:08.144Z,74.25781
2022-12-31T07:42:08.188Z,74.57129
2022-12-31T07:44:08.123Z,74.77246
2022-12-31T07:46:08.180Z,74.60059
2022-12-31T07:48:08.047Z,73.97949
2022-12-31T07:50:50.414Z,73.82422
2022-12-31T07:52:50.902Z,73.47656
2022-12-31T07:54:50.382Z,73.06641
2022-12-31T07:56:50.338Z,72.89355
2022-12-31T07:58:50.417Z,73.05469
2022-12-31T08:00:50.939Z,73.37598
2022-12-31T08:02:50.645Z,73.86719
2022-12-31T08:06:22.715Z,74.84668
2022-12-31T08:08:22.892Z,74.61719
2022-12-31T08:10:22.745Z,73.9707
2022-12-31T08:12:22.682Z,73.21973
2022-12-31T08:14:22.839Z,73.16992
2022-12-31T08:16:22.809Z,73.7627
2022-12-31T08:18:22.808Z,73.45703
2022-12-31T08:21:00.837Z,72.58594
2022-12-31T08:23:00.736Z,72.34277
2022-12-31T08:25:00.754Z,73.4375
2022-12-31T08:27:00.821Z,73.20801
2022-12-31T08:29:00.748Z,71.75293
2022-12-31T08:31:00.760Z,71.0127
2022-12-31T08:33:00.783Z,71.02051
2022-12-31T08:36:41.234Z,71.49902
2022-12-31T08:38:41.203Z,71.96777
2022-12-31T08:40:41.199Z,72.04102
2022-12-31T08:42:41.175Z,71.92285
2022-12-31T08:44:41.310Z,72.03711
2022-12-31T08:46:41.231Z,72.2793
2022-12-31T08:48:41.188Z,72.33008
2022-12-31T08:52:06.841Z,72.04688
2022-12-31T08:54:06.883Z,72.29883
2022-12-31T08:56:06.859Z,71.98926
2022-12-31T08:58:06.814Z,71.7793
2022-12-31T09:00:06.856Z,71.21191
2022-12-31T09:02:07.224Z,71.06445
2022-12-31T09:04:06.912Z,70.47168
2022-12-31T09:07:07.301Z,69.67188
2022-12-31T09:09:07.335Z,69.10254
2022-12-31T09:11:07.338Z,68.54102
2022-12-31T09:13:07.306Z,69.22559
2022-12-31T09:15:07.553Z,69.05957
2022-12-31T09:17:07.448Z,69.01172
2022-12-31T09:19:07.473Z,68.73438
2022-12-31T09:22:07.242Z,67.8291
2022-12-31T09:24:09.803Z,67.77148
2022-12-31T09:26:07.251Z,67.29688
2022-12-31T09:28:07.237Z,67.54688
2022-12-31T09:30:07.250Z,68.70117
2022-12-31T09:32:07.218Z,69.01074
2022-12-31T09:34:07.321Z,68.44922
2022-12-31T09:37:37.461Z,66.24609
2022-12-31T09:39:37.362Z,66.35547
2022-12-31T09:41:37.701Z,66.41016
2022-12-31T09:43:37.662Z,66.85547
2022-12-31T09:45:37.457Z,66.68848
2022-12-31T09:47:37.377Z,66.23242
2022-12-31T09:49:37.446Z,66.38965
2022-12-31T09:51:55.947Z,66.36523
2022-12-31T09:53:56.063Z,66.06543
2022-12-31T09:55:56.024Z,65.37207
2022-12-31T09:57:55.936Z,65.18848
2022-12-31T09:59:56.024Z,65.20117
2022-12-31T10:01:56.126Z,65.19434
2022-12-31T10:03:56.037Z,65.27539
2022-12-31T10:05:55.950Z,65.29199
2022-12-31T10:07:16.447Z,64.81543
2022-12-31T10:09:16.555Z,64.43359
2022-12-31T10:11:16.479Z,63.57715
2022-12-31T10:13:16.453Z,64.28223
2022-12-31T10:15:16.479Z,63.76953
2022-12-31T10:17:16.453Z,63.58691
2022-12-31T10:19:16.436Z,62.96484
2022-12-31T10:22:15.041Z,62.89355
2022-12-31T10:24:15.100Z,62.94336
2022-12-31T10:26:15.146Z,62.08008
2022-12-31T10:28:15.000Z,61.25
2022-12-31T10:30:15.082Z,61.77441
2022-12-31T10:32:15.044Z,61.44434
2022-12-31T10:34:15.041Z,61.90625
2022-12-31T10:36:15.069Z,62.11523
2022-12-31T10:38:17.500Z,62.44727
2022-12-31T10:40:17.554Z,61.84375
2022-12-31T10:42:17.447Z,61.50293
2022-12-31T10:44:18.126Z,61.66504
2022-12-31T10:46:23.551Z,61.49707
2022-12-31T10:48:17.437Z,61.38379
2022-12-31T10:50:17.539Z,61.27148
2022-12-31T10:52:50.578Z,60.24902
2022-12-31T10:54:50.537Z,60.68164
2022-12-31T10:56:50.522Z,61.3916
2022-12-31T10:58:50.616Z,60.09766
2022-12-31T11:00:50.561Z,60.49414
2022-12-31T11:02:50.765Z,59.56836
2022-12-31T11:04:50.519Z,59.5498
2022-12-31T11:08:16.562Z,59.53223
2022-12-31T11:10:16.721Z,59.12891
2022-12-31T11:12:16.593Z,58.83496
2022-12-31T11:14:16.618Z,59.05176
2022-12-31T11:16:16.698Z,58.64551
2022-12-31T11:18:16.665Z,58.9248
2022-12-31T11:20:16.578Z,57.67285
2022-12-31T11:23:31.009Z,57.88867
2022-12-31T11:25:30.965Z,57.69238
2022-12-31T11:27:30.985Z,57.50977
2022-12-31T11:29:31.008Z,57.70313
2022-12-31T11:31:31.147Z,58.31055
2022-12-31T11:33:31.005Z,57.94141
2022-12-31T11:35:30.966Z,57.71484
2022-12-31T11:38:53.661Z,56.21875
2022-12-31T11:40:53.607Z,56.43945
2022-12-31T11:42:53.745Z,56.53613
2022-12-31T11:44:53.723Z,56.6582
2022-12-31T11:46:53.595Z,57.17383
2022-12-31T11:48:53.674Z,56.88672
2022-12-31T11:50:53.613Z,56.92969
2022-12-31T11:53:47.750Z,57.29102
2022-12-31T11:55:47.666Z,57.08496
2022-12-31T11:57:47.647Z,57.24316
2022-12-31T11:59:47.657Z,57.27441
2022-12-31T12:01:47.616Z,57.19336
2022-12-31T12:03:47.758Z,56.74609
2022-12-31T12:05:47.646Z,56.57129
2022-12-31T12:09:01.559Z,56.50098
2022-12-31T12:11:01.509Z,57.03223
2022-12-31T12:13:01.557Z,56.67871
2022-12-31T12:15:01.521Z,57.05566
2022-12-31T12:17:05.799Z,57.38379
2022-12-31T12:19:01.464Z,57.13965
2022-12-31T12:21:01.525Z,57.01758
2022-12-31T12:24:21.065Z,56.5332
2022-12-31T12:26:21.031Z,56.02539
2022-12-31T12:28:20.993Z,55.69043
2022-12-31T12:30:21.044Z,55.71777
2022-12-31T12:32:21.098Z,56.10938
2022-12-31T12:34:20.988Z,56.19727
2022-12-31T12:36:21.039Z,56.28027
2022-12-31T12:39:43.046Z,56.39258
2022-12-31T12:41:43.005Z,55.6084
2022-12-31T12:43:43.091Z,55.46191
2022-12-31T12:45:51.119Z,55.62598
2022-12-31T12:47:43.280Z,55.78223
2022-12-31T12:49:43.059Z,55.96582
2022-12-31T12:51:43.248Z,56.03516
2022-12-31T12:54:09.722Z,55.74805
2022-12-31T12:56:10.625Z,55.56152
2022-12-31T12:58:18.795Z,55.47266
2022-12-31T13:00:09.787Z,55.13867
2022-12-31T13:02:09.944Z,55.09277
2022-12-31T13:04:35.534Z,54.88281
2022-12-31T13:06:09.649Z,54.83984
2022-12-31T13:09:35.487Z,54.89941
2022-12-31T13:11:35.404Z,54.86523
2022-12-31T13:13:35.457Z,54.92578
2022-12-31T13:15:35.572Z,55.05566
2022-12-31T13:17:35.444Z,55.40332
2022-12-31T13:19:35.448Z,55.73828
2022-12-31T13:21:35.343Z,55.77734
2022-12-31T13:24:32.913Z,56.02148
2022-12-31T13:26:32.957Z,56.04102
2022-12-31T13:28:32.946Z,56.16602
2022-12-31T13:30:32.839Z,56.47168
2022-12-31T13:32:32.865Z,56.59961
2022-12-31T13:34:32.902Z,56.80176
2022-12-31T13:36:33.053Z,56.94043
2022-12-31T13:39:51.029Z,57.28809
2022-12-31T13:41:51.063Z,57.63574
2022-12-31T13:43:51.492Z,57.89746
2022-12-31T13:45:51.066Z,58.15234
2022-12-31T13:47:51.042Z,58.17578
2022-12-31T13:49:51.021Z,58.3291
2022-12-31T13:51:51.027Z,58.40527
2022-12-31T13:54:40.287Z,58.66992
2022-12-31T13:56:40.223Z,59.20508
2022-12-31T13:58:40.308Z,59.16797
2022-12-31T14:00:40.443Z,59.08008
2022-12-31T14:02:40.608Z,59.18848
2022-12-31T14:04:40.474Z,59.57129
2022-12-31T14:06:40.634Z,59.80176
2022-12-31T14:08:40.650Z,60.16699
2022-12-31T14:10:31.492Z,60.38965
2022-12-31T14:12:31.530Z,60.05078
2022-12-31T14:14:31.337Z,60.20996
2022-12-31T14:16:31.612Z,60.14844
2022-12-31T14:18:31.638Z,60.36426
2022-12-31T14:20:31.433Z,60.37891
2022-12-31T14:22:31.383Z,60.51563
2022-12-31T14:25:26.636Z,60.79492
2022-12-31T14:27:26.569Z,60.90723
2022-12-31T14:29:26.620Z,60.67285
2022-12-31T14:31:26.852Z,60.68457
2022-12-31T14:33:26.643Z,60.75977
2022-12-31T14:35:26.481Z,60.93848
2022-12-31T14:37:26.544Z,60.61914
2022-12-31T14:40:27.508Z,61.06641
2022-12-31T14:42:27.591Z,61.14746
2022-12-31T14:44:27.493Z,61.66504
2022-12-31T14:46:27.562Z,61.98242
2022-12-31T14:48:27.529Z,61.93262
2022-12-31T14:50:27.498Z,61.86719
2022-12-31T14:52:27.644Z,61.84961
2022-12-31T14:55:15.902Z,61.83594
2022-12-31T14:57:15.861Z,61.82324
2022-12-31T14:59:15.929Z,62.45215
2022-12-31T15:01:16.196Z,62.20215
2022-12-31T15:03:16.017Z,62.49805
2022-12-31T15:05:15.913Z,62.67969
2022-12-31T15:07:15.857Z,62.90625
2022-12-31T15:09:15.833Z,62.66309
2022-12-31T15:10:47.060Z,63.21387
2022-12-31T15:12:47.151Z,62.88477
2022-12-31T15:14:47.171Z,63.46582
2022-12-31T15:16:47.206Z,63.59473
2022-12-31T15:18:46.995Z,63.88281
2022-12-31T15:20:47.029Z,64.19336
2022-12-31T15:22:47.294Z,64.12695
2022-12-31T15:26:15.615Z,64.72656
2022-12-31T15:28:15.642Z,64.86816
2022-12-31T15:30:15.693Z,65.5498
2022-12-31T15:32:15.520Z,65.02441
2022-12-31T15:34:15.518Z,64.81934
2022-12-31T15:36:15.478Z,65.19922
2022-12-31T15:38:15.456Z,65.93652
2022-12-31T15:41:13.940Z,66.02246
2022-12-31T15:43:13.860Z,65.62598
2022-12-31T15:45:13.907Z,66.20313
2022-12-31T15:47:14.007Z,65.98633
2022-12-31T15:49:16.318Z,65.70313
2022-12-31T15:51:13.968Z,65.48242
2022-12-31T15:53:13.966Z,65.87012
2022-12-31T15:55:59.022Z,66.1377
2022-12-31T15:57:59.010Z,66.08887
2022-12-31T16:00:00.147Z,66.28516
2022-12-31T16:01:59.323Z,66.08203
2022-12-31T16:03:58.940Z,66.26172
2022-12-31T16:05:58.916Z,66.46191
2022-12-31T16:07:59.016Z,66.37402
2022-12-31T16:09:59.269Z,66.94727
2022-12-31T16:11:22.325Z,66.83594
2022-12-31T16:13:22.359Z,67.12793
2022-12-31T16:15:22.365Z,66.68457
2022-12-31T16:17:22.333Z,66.67676
2022-12-31T16:19:22.348Z,66.47363
2022-12-31T16:21:22.386Z,66.70215
2022-12-31T16:23:22.321Z,66.74805
2022-12-31T16:27:08.161Z,67.30859
2022-12-31T16:29:07.926Z,67.33301
2022-12-31T16:31:08.110Z,66.74902
2022-12-31T16:33:07.965Z,66.57129
2022-12-31T16:35:23.106Z,67.09473
2022-12-31T16:37:07.947Z,66.61914
2022-12-31T16:39:07.943Z,66.69043
2022-12-31T16:41:27.378Z,66.33691
2022-12-31T16:43:27.648Z,66.66895
2022-12-31T16:45:27.397Z,66.54004
2022-12-31T16:47:27.519Z,66.47461
2022-12-31T16:49:27.407Z,67.27539
2022-12-31T16:51:27.439Z,66.69629
2022-12-31T16:53:27.522Z,66.93359
2022-12-31T16:55:27.531Z,66.53125
2022-12-31T16:57:33.344Z,66.52246
2022-12-31T16:59:35.941Z,67.4248
2022-12-31T17:01:33.086Z,67.16992
2022-12-31T17:03:33.098Z,67.47949
2022-12-31T17:05:32.979Z,67.60254
2022-12-31T17:07:32.946Z,67.5459
2022-12-31T17:09:32.864Z,67.60352
2022-12-31T17:12:03.642Z,68.21484
2022-12-31T17:14:03.693Z,68.25781
2022-12-31T17:16:03.841Z,68.66504
2022-12-31T17:18:03.707Z,68.71094
2022-12-31T17:20:03.682Z,68.76074
2022-12-31T17:22:03.873Z,68.47949
2022-12-31T17:24:04.021Z,68.11914
2022-12-31T17:27:27.171Z,67.88184
2022-12-31T17:29:27.125Z,67.71582
2022-12-31T17:31:27.327Z,68.08984
2022-12-31T17:33:27.080Z,68.24609
2022-12-31T17:35:26.997Z,68.05371
2022-12-31T17:37:27.049Z,67.69043
2022-12-31T17:39:27.146Z,67.91992
2022-12-31T17:42:15.116Z,68.00293
2022-12-31T17:44:15.034Z,68.02344
2022-12-31T17:46:15.180Z,68.29785
2022-12-31T17:48:15.068Z,68.4082
2022-12-31T17:50:14.987Z,68.55371
2022-12-31T17:52:15.066Z,69.0293
2022-12-31T17:54:14.994Z,68.75977
2022-12-31T17:57:39.728Z,68.3457
2022-12-31T17:59:39.708Z,68.35449
2022-12-31T18:01:39.967Z,68.48242
2022-12-31T18:03:39.757Z,68.83984
2022-12-31T18:05:39.716Z,68.88184
2022-12-31T18:07:39.693Z,69.19629
2022-12-31T18:09:39.711Z,68.74805
2022-12-31T18:13:11.281Z,69.37207
2022-12-31T18:15:11.262Z,69.66406
2022-12-31T18:17:11.519Z,69.69238
2022-12-31T18:19:46.167Z,70.24316
2022-12-31T18:21:11.256Z,70.0791
2022-12-31T18:23:11.232Z,69.97656
2022-12-31T18:25:11.261Z,69.24609
2022-12-31T18:28:32.213Z,69.58398
2022-12-31T18:30:32.225Z,69.90234
2022-12-31T18:32:32.201Z,70.10449
2022-12-31T18:34:32.230Z,70.31836
2022-12-31T18:36:32.207Z,70.87109
2022-12-31T18:38:32.245Z,70.84961
2022-12-31T18:40:32.493Z,70.30957
2022-12-31T18:43:05.356Z,70.42871
2022-12-31T18:44:57.320Z,70.46289
2022-12-31T18:46:57.439Z,70.39941
2022-12-31T18:48:57.740Z,70.62598
2022-12-31T18:50:57.283Z,71.10645
2022-12-31T18:52:57.334Z,71.51074
2022-12-31T18:54:57.234Z,71.43848
2022-12-31T18:58:20.247Z,71.43457
2022-12-31T19:00:20.334Z,71.41016
2022-12-31T19:02:20.567Z,70.85352
2022-12-31T19:04:28.485Z,70.30078
2022-12-31T19:06:20.362Z,70.53906
2022-12-31T19:08:20.271Z,70.25293
2022-12-31T19:10:20.311Z,70.3291
2022-12-31T19:13:42.684Z,70.29492
2022-12-31T19:15:42.783Z,70.18164
2022-12-31T19:17:42.780Z,70.35449
2022-12-31T19:19:42.900Z,70.23828
2022-12-31T19:21:42.904Z,70.5625
2022-12-31T19:23:42.910Z,70.5498
2022-12-31T19:25:43.020Z,70.70117
2022-12-31T19:28:14.552Z,70.78906
2022-12-31T19:30:14.372Z,70.81738
2022-12-31T19:32:14.363Z,70.46875
2022-12-31T19:34:14.265Z,70.66504
2022-12-31T19:36:14.298Z,71.00391
2022-12-31T19:38:14.316Z,71.94824
2022-12-31T19:40:14.309Z,71.62891
2022-12-31T19:42:14.209Z,71.19043
2022-12-31T19:43:55.563Z,71.17188
2022-12-31T19:45:55.741Z,70.69922
2022-12-31T19:47:55.595Z,70.85547
2022-12-31T19:49:55.509Z,70.99902
2022-12-31T19:51:55.597Z,71.16895
2022-12-31T19:53:55.531Z,70.97168
2022-12-31T19:55:55.605Z,71.27441
2022-12-31T19:59:15.491Z,71.80371
2022-12-31T20:01:15.478Z,72.29199
2022-12-31T20:03:15.515Z,72.00977
2022-12-31T20:05:15.263Z,71.64746
2022-12-31T20:07:15.285Z,71.8125
2022-12-31T20:09:15.272Z,72.59961
2022-12-31T20:11:15.313Z,72.58789
2022-12-31T20:14:37.596Z,72.75195
2022-12-31T20:16:37.863Z,72.99023
2022-12-31T20:18:37.682Z,72.96289
2022-12-31T20:20:37.585Z,72.94629
2022-12-31T20:22:37.606Z,72.78809
2022-12-31T20:24:37.643Z,72.51563
2022-12-31T20:26:37.660Z,72.84082
2022-12-31T20:29:17.168Z,72.22461
2022-12-31T20:31:17.323Z,72.59277
2022-12-31T20:33:19.591Z,72.77637
2022-12-31T20:35:17.237Z,72.40332
2022-12-31T20:37:17.146Z,71.94824
2022-12-31T20:39:17.130Z,71.51465
2022-12-31T20:41:17.132Z,71.36328
2022-12-31T20:44:27.978Z,71.82422
2022-12-31T20:46:28.147Z,71.42969
2022-12-31T20:48:27.952Z,71.45215
2022-12-31T20:50:28.054Z,71.48828
2022-12-31T20:52:27.917Z,71.31348
2022-12-31T20:54:27.995Z,71.25586
2022-12-31T20:56:27.962Z,71.52051
2022-12-31T20:59:42.491Z,71.51563
2022-12-31T21:04:07.950Z,71.50488
2022-12-31T21:05:42.758Z,72.01074
2022-12-31T21:07:42.550Z,72.79883
2022-12-31T21:09:42.466Z,72.61914
2022-12-31T21:11:42.543Z,72.64453
2022-12-31T21:14:36.559Z,73.04785
2022-12-31T21:16:34.521Z,74.07129
2022-12-31T21:18:34.531Z,73.31445
2022-12-31T21:20:34.306Z,73.63281
2022-12-31T21:22:34.205Z,73.25684
2022-12-31T21:24:34.235Z,73.78809
2022-12-31T21:26:34.165Z,74.56445
2022-12-31T21:30:26.781Z,74.50488
2022-12-31T21:32:26.671Z,73.99707
2022-12-31T21:34:26.752Z,74.22266
2022-12-31T21:36:26.731Z,73.20313
2022-12-31T21:38:26.853Z,72.84473
2022-12-31T21:40:26.721Z,73.13672
2022-12-31T21:42:26.741Z,72.77539
2022-12-31T21:45:32.153Z,72.12109
2022-12-31T21:47:47.043Z,72.42676
2022-12-31T21:49:32.097Z,71.95313
2022-12-31T21:51:32.130Z,72.08398
2022-12-31T21:53:37.592Z,72.37988
2022-12-31T21:55:32.118Z,72.5166
2022-12-31T21:58:15.384Z,72.54883
2022-12-31T22:00:53.873Z,73.86035
2022-12-31T22:03:00.218Z,73.26855
2022-12-31T22:05:05.935Z,73.60645
2022-12-31T22:06:53.809Z,73.1543
2022-12-31T22:08:53.942Z,72.76953
2022-12-31T22:10:53.817Z,72.26758
2022-12-31T22:12:53.852Z,72.68359
2022-12-31T22:15:47.903Z,73.2959
2022-12-31T22:17:47.799Z,73.88965
2022-12-31T22:20:27.780Z,73.66895
2022-12-31T22:21:47.553Z,73.38574
2022-12-31T22:23:47.866Z,72.89258
2022-12-31T22:25:47.708Z,73.15332
2022-12-31T22:28:27.967Z,74.00195
2022-12-31T22:30:41.062Z,73.76172
2022-12-31T22:32:41.068Z,73.27734
2022-12-31T22:34:41.929Z,72.96094
2022-12-31T22:36:41.078Z,72.93457
2022-12-31T22:38:41.040Z,73.30859
2022-12-31T22:40:41.103Z,72.7207
2022-12-31T22:42:41.079Z,73.51758
2022-12-31T22:45:56.107Z,74.26758
2022-12-31T22:47:56.207Z,75.01172
2022-12-31T22:49:56.128Z,74.45605
2022-12-31T22:52:05.709Z,74.2793
2022-12-31T22:53:56.101Z,73.77539
2022-12-31T22:55:56.054Z,73.47266
2022-12-31T22:57:56.103Z,73.52832
2022-12-31T23:01:02.684Z,73.19824
2022-12-31T23:03:02.640Z,72.78711
2022-12-31T23:05:15.097Z,72.88672
2022-12-31T23:07:02.650Z,72.63672
2022-12-31T23:09:02.735Z,72.52637
2022-12-31T23:11:02.585Z,72.71777
2022-12-31T23:13:02.775Z,72.50195
2022-12-31T23:16:39.246Z,73.00391
2022-12-31T23:18:39.176Z,72.7832
2022-12-31T23:20:38.928Z,72.54102
2022-12-31T23:22:38.932Z,72.13379
2022-12-31T23:24:38.910Z,71.97754
2022-12-31T23:26:38.910Z,71.99805
2022-12-31T23:28:39.043Z,72.16309
2022-12-31T23:30:55.096Z,72.15039
2022-12-31T23:32:55.191Z,72.20117
2022-12-31T23:34:55.068Z,72.46582
2022-12-31T23:36:55.138Z,72.7627
2022-12-31T23:38:55.092Z,72.86719
2022-12-31T23:40:55.107Z,73.54199
2022-12-31T23:42:55.084Z,73.50781
2022-12-31T23:44:55.163Z,73.46289
2022-12-31T23:46:27.734Z,73.20703
2022-12-31T23:48:27.588Z,72.76465
2022-12-31T23:50:27.536Z,73.43555
2022-12-31T23:52:27.631Z,74.01758
2022-12-31T23:54:27.553Z,74.88281
2022-12-31T23:56:27.559Z,74.52051
2022-12-31T23:58:27.590Z,74.15527
